Time;durP1;ratioP1;P1;durP2;ratioP2;P2;SDS_P1;SDS_P2;PMS_P1;PMS_P2;Temp;Humidity;BMP_temperature;BMP_pressure;BME280_temperature;BME280_humidity;BME280_pressure;Samples;Min_cycle;Max_cycle;Signal;HPM_P1;HPM_P2
2021/07/02 00:01:49;;;;;;;34.47;19.25;;;;;;;13.35;85.67;101444.31;5047522;28;20078;-71
2021/07/02 00:04:14;;;;;;;29.65;16.13;;;;;;;13.33;85.91;101447.09;5042693;28;20025;-71
2021/07/02 00:06:40;;;;;;;37.47;15.38;;;;;;;13.31;85.96;101449.03;5046287;28;20033;-71
2021/07/02 00:09:05;;;;;;;28.85;16.20;;;;;;;13.32;86.03;101452.47;5045489;28;20032;-71
2021/07/02 00:11:31;;;;;;;34.90;17.92;;;;;;;13.32;86.02;101448.06;5042027;28;20033;-71
2021/07/02 00:13:56;;;;;;;31.75;16.88;;;;;;;13.31;85.88;101446.44;5040140;28;20051;-71
2021/07/02 00:16:22;;;;;;;28.52;16.38;;;;;;;13.29;86.06;101443.13;5044415;28;20103;-71
2021/07/02 00:18:47;;;;;;;32.13;15.68;;;;;;;13.30;85.98;101447.41;5039056;28;20036;-71
2021/07/02 00:21:13;;;;;;;30.52;15.48;;;;;;;13.31;85.99;101448.22;5043738;28;20037;-71
2021/07/02 00:23:38;;;;;;;28.80;15.40;;;;;;;13.30;86.10;101447.41;5043042;28;20085;-71
2021/07/02 00:26:04;;;;;;;27.27;14.27;;;;;;;13.30;86.11;101438.75;5043306;28;20040;-71
2021/07/02 00:28:29;;;;;;;34.42;18.98;;;;;;;13.30;86.10;101443.94;5046084;28;20021;-71
2021/07/02 00:30:55;;;;;;;32.45;15.73;;;;;;;13.29;86.18;101437.13;5044803;28;20550;-71
2021/07/02 00:33:20;;;;;;;26.65;15.38;;;;;;;13.28;86.40;101435.47;5046293;28;20032;-71
2021/07/02 00:35:46;;;;;;;29.75;15.90;;;;;;;13.28;86.17;101435.47;5045847;28;20037;-72
2021/07/02 00:38:12;;;;;;;37.03;16.73;;;;;;;13.29;85.85;101435.31;5043065;28;20065;-72
2021/07/02 00:40:39;;;;;;;30.40;16.17;;;;;;;13.28;85.66;101438.09;5042191;28;20055;-71
2021/07/02 00:43:04;;;;;;;28.35;15.02;;;;;;;13.25;85.71;101436.63;5045319;28;20033;-71
2021/07/02 00:45:32;;;;;;;26.42;15.50;;;;;;;13.26;85.76;101435.66;5040565;28;20084;-71
2021/07/02 00:48:02;;;;;;;27.50;15.30;;;;;;;13.26;85.64;101430.44;5041460;28;20033;-71
2021/07/02 00:50:29;;;;;;;31.60;15.82;;;;;;;13.25;85.78;101432.22;5043909;28;20524;-71
2021/07/02 00:52:55;;;;;;;29.45;14.38;;;;;;;13.27;85.79;101436.47;5043726;28;20025;-71
2021/07/02 00:55:21;;;;;;;27.45;15.60;;;;;;;13.27;85.77;101433.88;5043038;28;20024;-71
2021/07/02 00:57:47;;;;;;;26.45;13.57;;;;;;;13.27;85.70;101426.06;5045836;28;20503;-70
2021/07/02 01:00:13;;;;;;;30.08;14.35;;;;;;;13.28;85.68;101430.28;5039120;28;20436;-71
2021/07/02 01:02:39;;;;;;;29.15;15.25;;;;;;;13.29;85.63;101421.50;5042827;28;20029;-71
2021/07/02 01:05:06;;;;;;;24.83;14.18;;;;;;;13.26;85.77;101417.44;5043543;28;20313;-71
2021/07/02 01:07:33;;;;;;;25.65;13.73;;;;;;;13.25;85.67;101415.78;5043652;28;20024;-71
2021/07/02 01:10:01;;;;;;;30.30;13.57;;;;;;;13.26;85.76;101412.22;5043518;28;20044;-71
2021/07/02 01:12:29;;;;;;;25.38;13.65;;;;;;;13.27;85.71;101407.81;5042735;28;20107;-71
2021/07/02 01:14:55;;;;;;;23.30;13.68;;;;;;;13.28;85.66;101414.66;5042043;28;20764;-71
2021/07/02 01:17:20;;;;;;;27.20;13.20;;;;;;;13.28;85.53;101417.25;5042352;28;20029;-71
2021/07/02 01:19:48;;;;;;;25.73;14.40;;;;;;;13.27;85.45;101413.84;5043726;28;20033;-71
2021/07/02 01:22:19;;;;;;;28.67;13.07;;;;;;;13.27;85.15;101418.25;5060026;28;20037;-71
2021/07/02 01:24:44;;;;;;;23.75;12.80;;;;;;;13.28;85.10;101423.28;5043041;28;20032;-71
2021/07/02 01:27:11;;;;;;;28.20;12.73;;;;;;;13.28;85.01;101412.88;5043851;28;20029;-71
2021/07/02 01:29:37;;;;;;;24.92;13.43;;;;;;;13.28;85.13;101412.88;5045933;28;20025;-71
2021/07/02 01:32:04;;;;;;;25.67;13.50;;;;;;;13.29;85.22;101409.28;5046438;28;20107;-71
2021/07/02 01:34:29;;;;;;;26.70;14.15;;;;;;;13.30;85.31;101407.47;5041664;28;20063;-71
2021/07/02 01:36:55;;;;;;;26.15;14.10;;;;;;;13.30;85.33;101415.28;5044596;28;20033;-71
2021/07/02 01:39:22;;;;;;;27.33;13.20;;;;;;;13.29;85.34;101408.47;5044227;28;20028;-71
2021/07/02 01:41:47;;;;;;;28.85;13.57;;;;;;;13.27;85.42;101416.44;5044442;28;20040;-71
2021/07/02 01:44:13;;;;;;;23.63;11.73;;;;;;;13.26;85.33;101417.44;5043588;28;20033;-71
2021/07/02 01:46:41;;;;;;;24.90;13.07;;;;;;;13.22;85.37;101422.13;5043684;28;20025;-71
2021/07/02 01:49:07;;;;;;;26.85;14.18;;;;;;;13.19;85.12;101417.22;5043762;28;20045;-71
2021/07/02 01:51:33;;;;;;;24.70;12.88;;;;;;;13.16;85.04;101416.72;5027428;28;20036;-71
2021/07/02 01:54:00;;;;;;;28.00;13.80;;;;;;;13.13;85.18;101423.09;5042615;28;20031;-71
2021/07/02 01:56:26;;;;;;;24.45;12.50;;;;;;;13.09;84.91;101413.13;5043709;28;20481;-71
2021/07/02 01:58:54;;;;;;;32.50;13.85;;;;;;;13.04;84.82;101418.81;5041469;28;20025;-71
2021/07/02 02:01:25;;;;;;;;;;;;;;;13.01;85.01;101416.50;5062385;28;20094;-72
2021/07/02 02:03:53;;;;;;;24.27;12.30;;;;;;;12.99;84.94;101408.84;5042742;28;20532;-71
2021/07/02 02:06:20;;;;;;;22.92;11.27;;;;;;;12.99;84.74;101416.66;5045639;28;20111;-71
2021/07/02 02:08:47;;;;;;;23.77;11.05;;;;;;;12.97;84.70;101413.41;5043620;28;20567;-71
2021/07/02 02:11:14;;;;;;;22.25;11.45;;;;;;;12.94;84.62;101418.94;5043889;28;20037;-71
2021/07/02 02:13:47;;;;;;;22.98;12.88;;;;;;;12.92;84.60;101412.25;5042142;28;20036;-71
2021/07/02 02:16:13;;;;;;;26.08;12.65;;;;;;;12.89;84.36;101402.16;5044031;28;20040;-71
2021/07/02 02:18:43;;;;;;;20.30;12.30;;;;;;;12.87;84.49;101409.31;5027545;28;20120;-71
2021/07/02 02:21:08;;;;;;;24.25;11.85;;;;;;;12.81;84.27;101406.34;5043600;28;20037;-71
2021/07/02 02:23:34;;;;;;;24.58;12.38;;;;;;;12.78;84.21;101408.44;5043370;28;20448;-71
2021/07/02 02:26:02;;;;;;;22.05;11.02;;;;;;;12.74;84.32;101394.13;5043903;28;20028;-71
2021/07/02 02:28:29;;;;;;;28.90;12.68;;;;;;;12.70;84.40;101404.03;5042810;28;20037;-71
2021/07/02 02:30:54;;;;;;;25.55;12.73;;;;;;;12.68;84.41;101405.13;5045179;28;20033;-71
2021/07/02 02:33:20;;;;;;;20.35;11.15;;;;;;;12.65;84.44;101401.06;5042620;28;20029;-71
2021/07/02 02:35:45;;;;;;;20.98;12.20;;;;;;;12.62;84.40;101397.00;5041452;28;20025;-71
2021/07/02 02:38:12;;;;;;;20.30;11.05;;;;;;;12.59;84.30;101402.50;5043552;28;20064;-71
2021/07/02 02:40:37;;;;;;;22.02;12.30;;;;;;;12.56;84.45;101405.41;5046550;28;20031;-71
2021/07/02 02:43:04;;;;;;;19.90;10.70;;;;;;;12.50;84.37;101419.03;5045161;28;20059;-71
2021/07/02 02:45:31;;;;;;;21.00;11.63;;;;;;;12.45;84.55;101414.28;5047322;28;20033;-71
2021/07/02 02:47:57;;;;;;;22.85;11.10;;;;;;;12.42;84.37;101405.97;5048556;28;20044;-71
2021/07/02 02:50:23;;;;;;;25.13;11.55;;;;;;;12.38;84.50;101404.66;5046967;28;20029;-71
2021/07/02 02:52:49;;;;;;;21.77;12.15;;;;;;;12.34;84.25;101400.72;5030162;28;21308;-71
2021/07/02 02:55:15;;;;;;;28.63;13.63;;;;;;;12.29;84.05;101408.97;5046886;28;20523;-71
2021/07/02 02:57:41;;;;;;;25.90;12.60;;;;;;;12.23;84.41;101413.00;5043788;28;20060;-71
2021/07/02 03:00:08;;;;;;;28.73;13.25;;;;;;;12.20;84.39;101415.91;5047391;28;20045;-71
2021/07/02 03:02:34;;;;;;;21.90;12.27;;;;;;;12.18;84.61;101414.44;5046311;28;20157;-71
2021/07/02 03:05:01;;;;;;;22.40;12.27;;;;;;;12.15;84.75;101419.91;5046985;28;20048;-71
2021/07/02 03:07:27;;;;;;;22.17;11.63;;;;;;;12.10;85.02;101416.97;5047646;28;20066;-71
2021/07/02 03:09:52;;;;;;;22.60;12.13;;;;;;;12.08;84.92;101422.31;5046765;28;20028;-71
2021/07/02 03:12:20;;;;;;;22.25;13.13;;;;;;;12.05;85.06;101418.25;5048248;28;20636;-71
2021/07/02 03:14:46;;;;;;;23.55;13.20;;;;;;;12.04;84.89;101414.00;5045579;28;20025;-71
2021/07/02 03:17:11;;;;;;;19.90;11.80;;;;;;;12.02;85.19;101408.16;5047249;28;20029;-71
2021/07/02 03:19:40;;;;;;;23.60;12.77;;;;;;;11.99;84.85;101400.63;5045913;28;20032;-71
2021/07/02 03:22:06;;;;;;;26.10;13.98;;;;;;;11.98;85.06;101414.63;5047611;28;20045;-71
2021/07/02 03:24:35;;;;;;;23.23;12.00;;;;;;;11.93;84.92;101409.03;5046520;28;20116;-71
2021/07/02 03:27:01;;;;;;;19.10;12.10;;;;;;;11.90;85.20;101416.31;5046716;28;20033;-71
2021/07/02 03:29:27;;;;;;;24.55;11.68;;;;;;;11.88;85.15;101406.03;5045830;28;20500;-71
2021/07/02 03:31:54;;;;;;;22.63;11.52;;;;;;;11.88;85.18;101417.28;5047784;28;20041;-71
2021/07/02 03:34:21;;;;;;;20.65;11.75;;;;;;;11.86;85.44;101416.56;5044394;28;20051;-71
2021/07/02 03:36:46;;;;;;;20.50;11.50;;;;;;;11.86;85.39;101410.56;5047071;28;20489;-71
2021/07/02 03:39:12;;;;;;;21.55;12.02;;;;;;;11.86;85.50;101415.75;5042866;28;20826;-71
2021/07/02 03:41:38;;;;;;;22.95;13.18;;;;;;;11.85;85.60;101409.75;5046216;28;20021;-71
2021/07/02 03:44:04;;;;;;;23.80;12.65;;;;;;;11.87;85.84;101420.00;5044200;28;20063;-71
2021/07/02 03:46:30;;;;;;;26.10;13.68;;;;;;;11.86;85.87;101416.56;5046228;28;20119;-71
2021/07/02 03:48:56;;;;;;;21.42;12.38;;;;;;;11.85;85.94;101419.34;5046076;28;20031;-72
2021/07/02 03:51:22;;;;;;;26.70;15.05;;;;;;;11.91;86.17;101417.97;5046048;28;20033;-71
2021/07/02 03:53:48;;;;;;;36.28;16.67;;;;;;;11.91;85.90;101417.97;5046612;28;20428;-71
2021/07/02 03:56:13;;;;;;;25.65;13.73;;;;;;;11.86;85.81;101416.56;5043061;28;20591;-71
2021/07/02 03:58:39;;;;;;;27.35;14.00;;;;;;;11.85;86.46;101421.94;5046296;28;20028;-71
2021/07/02 04:01:05;;;;;;;26.70;14.32;;;;;;;11.88;86.76;101427.66;5044881;28;20432;-71
2021/07/02 04:03:32;;;;;;;28.83;14.43;;;;;;;11.91;87.02;101431.75;5044981;28;20094;-71
2021/07/02 04:05:57;;;;;;;22.25;12.60;;;;;;;11.93;87.25;101436.81;5045530;28;20451;-71
2021/07/02 04:08:23;;;;;;;28.13;14.15;;;;;;;11.94;87.30;101431.47;5046968;28;20044;-71
2021/07/02 04:10:49;;;;;;;28.67;13.95;;;;;;;11.96;87.26;101439.09;5042512;28;20277;-71
2021/07/02 04:13:15;;;;;;;24.40;13.02;;;;;;;11.95;87.49;101435.69;5045095;28;20493;-71
2021/07/02 04:15:42;;;;;;;28.00;13.90;;;;;;;11.99;87.47;101431.00;5047659;28;20480;-71
2021/07/02 04:18:08;;;;;;;27.42;14.90;;;;;;;11.99;87.56;101441.41;5048123;28;20323;-71
2021/07/02 04:20:34;;;;;;;26.33;12.38;;;;;;;12.01;87.48;101444.69;5046903;28;20137;-71
2021/07/02 04:23:00;;;;;;;27.58;13.55;;;;;;;12.03;87.48;101442.75;5046969;28;20033;-71
2021/07/02 04:25:26;;;;;;;25.83;14.20;;;;;;;12.07;87.58;101444.06;5046045;28;20039;-71
2021/07/02 04:27:52;;;;;;;25.25;14.85;;;;;;;12.10;87.48;101448.97;5044502;28;20087;-73
2021/07/02 04:30:17;;;;;;;27.33;14.77;;;;;;;12.15;87.75;101443.31;5047111;28;20040;-71
2021/07/02 04:32:43;;;;;;;26.10;13.45;;;;;;;12.18;88.01;101441.22;5047571;28;20062;-71
2021/07/02 04:35:09;;;;;;;31.05;15.65;;;;;;;12.21;87.95;101438.34;5044988;28;20025;-72
2021/07/02 04:37:37;;;;;;;32.03;15.05;;;;;;;12.26;88.06;101441.31;5045070;28;20055;-71
2021/07/02 04:40:04;;;;;;;36.58;15.15;;;;;;;12.30;88.29;101443.59;5043060;28;20048;-71
2021/07/02 04:42:29;;;;;;;27.92;13.23;;;;;;;12.33;88.11;101440.69;5044732;28;20037;-71
2021/07/02 04:44:55;;;;;;;29.40;13.32;;;;;;;12.38;87.93;101443.66;5045935;28;20046;-71
2021/07/02 04:47:21;;;;;;;34.42;14.18;;;;;;;12.41;87.74;101441.59;5046576;28;20397;-71
2021/07/02 04:49:47;;;;;;;27.83;13.15;;;;;;;12.45;87.68;101442.06;5044685;28;20025;-71
2021/07/02 04:52:13;;;;;;;23.13;12.80;;;;;;;12.51;87.44;101441.47;5044961;28;20037;-71
2021/07/02 04:54:38;;;;;;;22.77;13.05;;;;;;;12.56;87.37;101439.22;5045895;28;20078;-71
2021/07/02 04:57:04;;;;;;;27.10;11.60;;;;;;;12.61;87.37;101442.19;5045578;28;20605;-71
2021/07/02 04:59:34;;;;;;;24.70;13.00;;;;;;;12.67;87.23;101443.34;5043912;28;20032;-71
2021/07/02 05:02:00;;;;;;;22.65;11.85;;;;;;;12.72;87.27;101448.13;5042741;28;20487;-71
2021/07/02 05:04:26;;;;;;;31.23;13.50;;;;;;;12.76;86.82;101444.22;5059981;28;20037;-71
2021/07/02 05:06:51;;;;;;;27.25;12.38;;;;;;;12.79;86.74;101441.28;5046543;28;20033;-71
2021/07/02 05:09:17;;;;;;;25.08;11.73;;;;;;;12.81;86.50;101448.00;5045064;28;20127;-72
2021/07/02 05:11:42;;;;;;;26.35;12.82;;;;;;;12.84;86.37;101452.06;5045160;28;20033;-71
2021/07/02 05:14:08;;;;;;;23.27;13.10;;;;;;;12.85;86.31;101443.31;5043413;28;20504;-72
2021/07/02 05:16:33;;;;;;;23.17;11.35;;;;;;;12.89;86.06;101443.81;5045351;28;20037;-71
2021/07/02 05:18:59;;;;;;;24.20;13.02;;;;;;;12.92;85.55;101440.88;5044466;28;20402;-71
2021/07/02 05:21:24;;;;;;;27.73;12.57;;;;;;;12.96;85.46;101443.03;5045055;28;20032;-71
2021/07/02 05:23:50;;;;;;;24.95;12.63;;;;;;;12.98;85.18;101448.88;5028537;28;20050;-72
2021/07/02 05:26:15;;;;;;;22.67;10.65;;;;;;;13.00;85.05;101443.53;5044695;28;20498;-71
2021/07/02 05:28:41;;;;;;;29.13;12.27;;;;;;;13.02;85.23;101441.59;5043809;28;20389;-71
2021/07/02 05:31:06;;;;;;;20.33;11.55;;;;;;;13.04;85.05;101443.06;5044598;28;20045;-71
2021/07/02 05:33:33;;;;;;;19.95;11.40;;;;;;;13.08;84.83;101443.56;5044582;28;20120;-71
2021/07/02 05:35:58;;;;;;;22.27;11.40;;;;;;;13.11;84.72;101434.59;5045571;28;20497;-71
2021/07/02 05:38:24;;;;;;;20.63;11.32;;;;;;;13.13;84.41;101440.47;5045545;28;20091;-71
2021/07/02 05:40:55;;;;;;;22.77;11.32;;;;;;;13.15;84.21;101444.56;5045357;28;20033;-71
2021/07/02 05:43:24;;;;;;;25.13;11.35;;;;;;;13.17;83.74;101439.22;5043471;28;20080;-71
2021/07/02 05:45:50;;;;;;;23.65;11.85;;;;;;;13.19;83.16;101445.06;5045870;28;20083;-71
2021/07/02 05:48:18;;;;;;;17.63;10.88;;;;;;;13.22;82.75;101445.56;5042920;28;20416;-71
2021/07/02 05:50:48;;;;;;;24.02;10.50;;;;;;;13.27;82.78;101447.69;5044454;28;20120;-71
2021/07/02 05:53:14;;;;;;;23.60;11.63;;;;;;;13.33;82.54;101454.91;5045065;28;20041;-71
2021/07/02 05:55:40;;;;;;;21.15;10.52;;;;;;;13.39;82.26;101445.63;5042591;28;20052;-71
2021/07/02 05:58:05;;;;;;;22.13;10.48;;;;;;;13.47;81.92;101457.88;5040816;28;20028;-71
2021/07/02 06:00:31;;;;;;;19.00;10.38;;;;;;;13.55;81.94;101444.88;5043400;28;20433;-71
2021/07/02 06:02:57;;;;;;;24.45;12.48;;;;;;;13.64;79.86;101446.53;5043601;28;20044;-71
2021/07/02 06:05:23;;;;;;;17.77;9.65;;;;;;;13.71;79.89;101446.69;5041902;28;20474;-71
2021/07/02 06:07:51;;;;;;;24.20;11.02;;;;;;;13.79;79.67;101457.94;5043608;28;20024;-71
2021/07/02 06:10:19;;;;;;;19.52;10.52;;;;;;;13.94;79.64;101446.88;5043957;28;20485;-71
2021/07/02 06:12:46;;;;;;;27.13;10.32;;;;;;;14.01;79.34;101455.66;5041426;28;20044;-71
2021/07/02 06:15:13;;;;;;;18.98;9.68;;;;;;;14.05;79.13;101458.78;5046897;28;20410;-71
2021/07/02 06:17:40;;;;;;;17.55;7.85;;;;;;;14.06;78.67;101461.22;5046416;28;20480;-71
2021/07/02 06:20:07;;;;;;;20.35;10.93;;;;;;;14.10;77.98;101459.91;5047451;28;20162;-72
2021/07/02 06:22:32;;;;;;;20.63;8.98;;;;;;;14.13;78.00;101462.22;5048369;28;20494;-71
2021/07/02 06:24:58;;;;;;;19.65;9.40;;;;;;;14.21;77.55;101466.59;5046129;28;20417;-71
2021/07/02 06:27:23;;;;;;;19.23;9.43;;;;;;;14.26;77.97;101459.09;5048542;28;20037;-71
2021/07/02 06:29:49;;;;;;;16.65;9.20;;;;;;;14.37;78.30;101463.16;5043715;28;20516;-71
2021/07/02 06:32:14;;;;;;;23.02;10.32;;;;;;;14.48;76.40;101456.78;5046245;28;20327;-71
2021/07/02 06:34:40;;;;;;;24.38;10.48;;;;;;;14.56;76.69;101460.22;5047374;28;20055;-71
2021/07/02 06:37:06;;;;;;;23.90;10.07;;;;;;;14.66;76.49;101457.44;5043229;28;20073;-71
2021/07/02 06:39:32;;;;;;;24.17;9.88;;;;;;;15.21;72.94;101447.94;5062912;28;20494;-70
2021/07/02 06:41:57;;;;;;;27.10;10.45;;;;;;;16.27;71.13;101442.97;5048878;28;20032;-70
2021/07/02 06:44:23;;;;;;;22.23;9.27;;;;;;;17.14;67.41;101445.03;5047414;28;20608;-70
2021/07/02 06:46:48;;;;;;;19.55;9.70;;;;;;;17.99;66.92;101442.63;5047521;28;20033;-71
2021/07/02 06:49:14;;;;;;;20.05;8.88;;;;;;;18.28;62.61;101444.28;5047936;28;20343;-71
2021/07/02 06:51:39;;;;;;;18.63;8.63;;;;;;;18.05;64.60;101447.97;5048698;28;20086;-71
2021/07/02 06:54:05;;;;;;;26.70;8.48;;;;;;;18.18;63.69;101447.25;5046216;28;20172;-71
2021/07/02 06:56:32;;;;;;;29.00;8.98;;;;;;;18.30;61.76;101444.91;5047164;28;20399;-70
2021/07/02 06:58:57;;;;;;;15.00;7.18;;;;;;;18.55;62.46;101444.47;5048496;28;20570;-72
2021/07/02 07:01:24;;;;;;;23.30;8.35;;;;;;;18.18;61.94;101452.50;5047032;28;20171;-69
2021/07/02 07:03:50;;;;;;;16.15;8.88;;;;;;;18.14;60.84;101451.25;5043747;28;20123;-71
2021/07/02 07:06:16;;;;;;;19.13;9.13;;;;;;;18.60;61.50;101445.50;5046402;28;20113;-72
2021/07/02 07:08:41;;;;;;;18.58;8.10;;;;;;;18.62;62.85;101450.56;5048590;28;20043;-71
2021/07/02 07:11:07;;;;;;;18.75;7.82;;;;;;;18.67;59.92;101448.97;5047287;28;20041;-72
2021/07/02 07:13:32;;;;;;;15.23;7.45;;;;;;;18.66;60.51;101455.22;5049269;28;20029;-72
2021/07/02 07:15:58;;;;;;;14.30;6.97;;;;;;;18.56;61.08;101454.78;5047049;28;20492;-72
2021/07/02 07:18:23;;;;;;;18.17;8.35;;;;;;;18.84;58.51;101456.56;5048818;28;20048;-72
2021/07/02 07:20:49;;;;;;;22.15;8.38;;;;;;;18.92;58.42;101448.53;5047084;28;20037;-71
2021/07/02 07:23:15;;;;;;;21.50;8.07;;;;;;;19.43;59.17;101453.34;5047428;28;20636;-70
2021/07/02 07:25:40;;;;;;;19.50;8.13;;;;;;;19.32;58.84;101453.91;5044567;28;20033;-72
2021/07/02 07:28:06;;;;;;;21.00;7.25;;;;;;;18.90;59.16;101453.16;5048603;28;20041;-71
2021/07/02 07:30:31;;;;;;;17.83;8.88;;;;;;;18.90;59.96;101457.63;5047569;28;20025;-71
2021/07/02 07:32:57;;;;;;;15.82;6.90;;;;;;;18.76;60.43;101454.06;5047516;28;20048;-71
2021/07/02 07:35:26;;;;;;;15.75;6.78;;;;;;;18.80;60.84;101458.78;5046455;28;20032;-72
2021/07/02 07:37:55;;;;;;;18.70;7.00;;;;;;;18.90;61.63;101462.88;5046822;28;20045;-72
2021/07/02 07:40:22;;;;;;;14.63;6.95;;;;;;;18.93;60.96;101462.47;5046039;28;20045;-71
2021/07/02 07:42:48;;;;;;;14.23;6.80;;;;;;;18.82;61.05;101462.03;5047061;28;20091;-72
2021/07/02 07:45:13;;;;;;;21.92;6.03;;;;;;;18.79;61.12;101461.56;5046520;28;20029;-72
2021/07/02 07:47:39;;;;;;;18.83;7.15;;;;;;;18.62;62.88;101469.75;5045759;28;20035;-72
2021/07/02 07:50:10;;;;;;;11.82;6.03;;;;;;;18.66;60.32;101470.97;5046091;28;20619;-71
2021/07/02 07:55:02;;;;;;;16.15;6.38;;;;;;;18.86;58.79;101476.38;5045202;28;20040;-71
2021/07/02 07:57:28;;;;;;;12.48;5.90;;;;;;;18.92;60.50;101474.78;5042129;28;20033;-71
2021/07/02 07:59:53;;;;;;;15.02;5.68;;;;;;;19.03;62.01;101478.69;5047005;28;20460;-71
2021/07/02 08:02:18;;;;;;;18.50;7.47;;;;;;;18.92;61.83;101480.06;5043897;28;20033;-71
2021/07/02 08:04:44;;;;;;;16.48;8.20;;;;;;;18.76;61.59;101470.66;5046064;28;20028;-73
2021/07/02 08:07:09;;;;;;;14.52;6.85;;;;;;;18.77;61.03;101471.47;5046573;28;20044;-73
2021/07/02 08:09:35;;;;;;;12.45;6.18;;;;;;;18.80;62.09;101474.53;5046277;28;20036;-72
2021/07/02 08:12:00;;;;;;;15.95;7.22;;;;;;;19.00;60.87;101479.88;5047193;28;20056;-72
2021/07/02 08:14:26;;;;;;;16.58;5.80;;;;;;;18.90;58.90;101486.50;5044243;28;20024;-72
2021/07/02 08:16:51;;;;;;;11.02;5.28;;;;;;;18.85;58.88;101480.03;5045988;28;20047;-72
2021/07/02 08:19:17;;;;;;;11.88;5.72;;;;;;;18.87;60.25;101482.44;5046850;28;20033;-72
2021/07/02 08:21:42;;;;;;;11.73;5.53;;;;;;;19.19;58.96;101475.75;5046575;28;20033;-72
2021/07/02 08:24:08;;;;;;;12.98;4.90;;;;;;;19.35;59.35;101486.91;5046839;28;20048;-72
2021/07/02 08:26:34;;;;;;;9.35;4.65;;;;;;;19.43;56.16;101484.09;5048234;28;20041;-72
2021/07/02 08:31:43;;;;;;;10.98;5.68;;;;;;;19.48;59.26;101479.06;5042797;28;20417;-72
2021/07/02 08:34:08;;;;;;;11.48;5.53;;;;;;;19.49;57.16;101482.47;5047262;28;20041;-69
2021/07/02 08:36:34;;;;;;;8.88;5.07;;;;;;;19.38;58.65;101482.06;5050240;28;20040;-70
2021/07/02 08:39:01;;;;;;;15.57;6.32;;;;;;;19.20;58.73;101481.78;5043831;28;20029;-71
2021/07/02 08:41:26;;;;;;;11.77;5.55;;;;;;;19.01;58.86;101483.34;5044621;28;20028;-72
2021/07/02 08:43:52;;;;;;;16.38;5.63;;;;;;;18.94;60.68;101477.22;5046580;28;20036;-71
2021/07/02 08:46:20;;;;;;;13.50;4.68;;;;;;;18.67;59.88;101479.69;5046643;28;20040;-71
2021/07/02 08:48:48;;;;;;;9.48;4.85;;;;;;;18.59;60.76;101485.06;5043320;28;20033;-72
2021/07/02 08:51:14;;;;;;;11.63;4.82;;;;;;;18.86;59.92;101486.91;5043836;28;20040;-71
2021/07/02 08:53:40;;;;;;;8.50;4.45;;;;;;;18.75;61.23;101489.22;5045880;28;20084;-72
2021/07/02 08:56:06;;;;;;;11.48;6.35;;;;;;;18.85;60.48;101490.53;5043780;28;22138;-72
2021/07/02 08:58:34;;;;;;;7.43;4.38;;;;;;;19.18;59.64;101489.06;5046629;28;20028;-72
2021/07/02 09:00:59;;;;;;;17.02;5.63;;;;;;;19.57;59.96;101482.28;5044396;28;20053;-71
2021/07/02 09:03:40;;;;;;;14.27;4.63;;;;;;;19.81;58.41;101476.50;5037251;28;20036;-71
2021/07/02 09:06:08;;;;;;;12.10;5.25;;;;;;;20.33;56.32;101474.06;5043594;28;20396;-72
2021/07/02 09:08:34;;;;;;;11.18;5.32;;;;;;;20.75;56.61;101477.25;5046907;28;20129;-73
2021/07/02 09:11:00;;;;;;;11.57;4.70;;;;;;;21.17;55.17;101471.63;5044613;28;20060;-72
2021/07/02 09:13:42;;;;;;;15.63;5.78;;;;;;;21.05;53.19;101481.22;5046389;28;20071;-72
2021/07/02 09:16:22;;;;;;;12.98;5.10;;;;;;;21.20;52.10;101479.13;5026431;28;20083;-73
2021/07/02 09:18:49;;;;;;;10.88;4.20;;;;;;;21.12;53.83;101474.91;5043099;28;20049;-72
2021/07/02 09:21:29;;;;;;;9.43;4.05;;;;;;;20.87;50.27;101481.88;5045438;28;20500;-72
2021/07/02 09:24:00;;;;;;;9.35;4.35;;;;;;;20.87;52.27;101477.44;5044275;28;20037;-72
2021/07/02 09:26:37;;;;;;;7.22;3.90;;;;;;;20.94;54.40;101480.03;5044616;28;20072;-72
2021/07/02 09:29:18;;;;;;;7.55;3.75;;;;;;;21.63;51.20;101486.44;5042666;28;20036;-73
2021/07/02 09:31:45;;;;;;;10.63;4.82;;;;;;;22.22;50.88;101483.56;5040197;28;20036;-73
2021/07/02 09:34:10;;;;;;;12.15;5.35;;;;;;;22.47;49.24;101470.31;5042698;28;20312;-73
2021/07/02 09:36:36;;;;;;;13.00;5.53;;;;;;;21.99;49.96;101474.41;5045199;28;20115;-72
2021/07/02 09:39:01;;;;;;;10.55;5.65;;;;;;;21.87;50.98;101486.66;5045081;28;20040;-73
2021/07/02 09:41:34;;;;;;;15.73;7.32;;;;;;;21.63;52.04;101490.91;5044007;28;20044;-72
2021/07/02 09:44:12;;;;;;;14.48;8.00;;;;;;;21.83;50.35;101482.84;5043504;28;20124;-72
2021/07/02 09:46:38;;;;;;;13.85;7.20;;;;;;;22.37;47.97;101480.59;5039761;28;20524;-73
2021/07/02 09:49:03;;;;;;;16.00;7.53;;;;;;;22.57;48.25;101480.41;5042739;28;20043;-72
2021/07/02 09:51:31;;;;;;;18.85;8.68;;;;;;;22.86;48.49;101476.22;5045757;28;20118;-72
2021/07/02 09:54:06;;;;;;;12.60;7.28;;;;;;;22.88;47.56;101482.09;5039331;28;20028;-74
2021/07/02 09:56:31;;;;;;;14.43;7.47;;;;;;;23.13;47.49;101480.19;5042435;28;20659;-73
2021/07/02 09:58:57;;;;;;;15.75;7.15;;;;;;;23.10;48.05;101485.09;5036833;28;20029;-73
2021/07/02 10:01:29;;;;;;;16.80;6.70;;;;;;;23.48;48.23;101491.94;5044007;28;20031;-72
2021/07/02 10:04:07;;;;;;;18.70;7.93;;;;;;;23.60;45.54;101489.31;5045712;28;20093;-73
2021/07/02 10:06:32;;;;;;;18.60;8.38;;;;;;;23.62;46.48;101488.06;5040653;28;20098;-73
2021/07/02 10:09:03;;;;;;;17.95;8.70;;;;;;;23.36;48.85;101491.91;5048019;28;20033;-71
2021/07/02 10:11:28;;;;;;;14.15;8.10;;;;;;;22.69;47.63;101495.28;5042059;28;20442;-72
2021/07/02 10:13:54;;;;;;;12.90;6.45;;;;;;;22.72;50.15;101492.22;5042186;28;20032;-73
2021/07/02 10:16:20;;;;;;;14.20;8.43;;;;;;;23.07;49.24;101491.63;5059411;28;20533;-73
2021/07/02 10:18:56;;;;;;;14.15;7.82;;;;;;;23.25;48.65;101488.16;5045803;28;20033;-74
2021/07/02 10:21:24;;;;;;;13.27;8.05;;;;;;;23.19;49.37;101490.88;5044521;28;20025;-74
2021/07/02 10:24:10;;;;;;;19.25;8.63;;;;;;;23.06;48.18;101486.59;5044894;28;20025;-73
2021/07/02 10:26:36;;;;;;;13.18;7.10;;;;;;;22.93;50.52;101490.16;5044974;28;20060;-72
2021/07/02 10:29:03;;;;;;;13.68;7.45;;;;;;;22.70;52.37;101498.78;5043912;28;20115;-74
2021/07/02 10:31:29;;;;;;;13.48;7.68;;;;;;;22.83;50.56;101503.91;5045103;28;20053;-72
2021/07/02 10:33:58;;;;;;;14.57;9.30;;;;;;;22.74;48.83;101499.94;5044665;28;20029;-72
2021/07/02 10:36:31;;;;;;;14.52;8.73;;;;;;;22.60;50.11;101509.03;5043448;28;20111;-73
2021/07/02 10:38:57;;;;;;;16.90;8.40;;;;;;;22.77;50.41;101506.59;5042263;28;20025;-72
2021/07/02 10:41:28;;;;;;;17.75;9.18;;;;;;;22.76;47.03;101508.47;5045511;28;20083;-71
2021/07/02 10:44:11;;;;;;;15.27;9.50;;;;;;;22.43;48.55;101511.41;5041202;28;20029;-73
2021/07/02 10:46:59;;;;;;;14.38;8.50;;;;;;;22.33;50.61;101507.44;5040073;28;20033;-71
2021/07/02 10:49:36;;;;;;;12.45;7.57;;;;;;;22.38;49.60;101511.25;5044861;28;20056;-73
2021/07/02 10:52:21;;;;;;;14.27;8.00;;;;;;;22.13;52.99;101514.69;5043425;28;20055;-71
2021/07/02 10:54:47;;;;;;;14.90;9.00;;;;;;;22.34;51.37;101511.72;5040328;28;20052;-73
2021/07/02 10:57:14;;;;;;;13.90;7.78;;;;;;;22.48;49.12;101507.09;5043018;28;20037;-70
2021/07/02 10:59:44;;;;;;;11.85;8.00;;;;;;;22.46;50.70;101513.63;5041456;28;20041;-70
2021/07/02 11:02:09;;;;;;;15.95;8.35;;;;;;;22.62;49.33;101513.09;5048420;28;20037;-70
2021/07/02 11:04:39;;;;;;;14.60;8.23;;;;;;;22.53;52.21;101517.84;5044306;28;20540;-70
2021/07/02 11:07:23;;;;;;;14.60;8.10;;;;;;;22.63;48.05;101513.88;5044809;28;20727;-70
2021/07/02 11:09:51;;;;;;;14.57;7.80;;;;;;;22.70;48.52;101514.63;5047133;28;20028;-70
2021/07/02 11:12:31;;;;;;;14.02;7.22;;;;;;;22.81;48.59;101513.91;5045778;28;20068;-70
2021/07/02 11:14:57;;;;;;;14.88;8.38;;;;;;;22.87;49.47;101513.00;5046600;28;20053;-69
2021/07/02 11:17:38;;;;;;;21.88;9.48;;;;;;;22.71;48.12;101517.03;5045970;28;20039;-69
2021/07/02 11:20:07;;;;;;;14.10;7.55;;;;;;;22.51;49.33;101508.53;5048226;28;20028;-69